sensor_id;sensor_type;location;lat;lon;timestamp;temperature;humidity
34646;DHT22;20857;47.808;12.482;2022-12-18T00:01:29;-7.60;99.90
34646;DHT22;20857;47.808;12.482;2022-12-18T00:03:56;-7.70;99.90
34646;DHT22;20857;47.808;12.482;2022-12-18T00:06:22;-7.80;99.90
34646;DHT22;20857;47.808;12.482;2022-12-18T00:08:48;-7.70;99.90
34646;DHT22;20857;47.808;12.482;2022-12-18T00:11:15;-7.80;99.90
34646;DHT22;20857;47.808;12.482;2022-12-18T00:13:41;-7.90;99.90
34646;DHT22;20857;47.808;12.482;2022-12-18T00:16:07;-8.00;99.90
34646;DHT22;20857;47.808;12.482;2022-12-18T00:18:33;-8.00;99.90
34646;DHT22;20857;47.808;12.482;2022-12-18T00:21:00;-7.90;99.90
34646;DHT22;20857;47.808;12.482;2022-12-18T00:23:26;-7.90;99.90
34646;DHT22;20857;47.808;12.482;2022-12-18T00:25:52;-7.90;99.90
34646;DHT22;20857;47.808;12.482;2022-12-18T00:28:17;-7.90;99.90
34646;DHT22;20857;47.808;12.482;2022-12-18T00:30:43;-8.00;99.90
34646;DHT22;20857;47.808;12.482;2022-12-18T00:33:10;-8.10;99.90
34646;DHT22;20857;47.808;12.482;2022-12-18T00:35:35;-8.10;99.90
34646;DHT22;20857;47.808;12.482;2022-12-18T00:38:01;-8.20;99.90
34646;DHT22;20857;47.808;12.482;2022-12-18T00:40:26;-8.40;99.90
34646;DHT22;20857;47.808;12.482;2022-12-18T00:42:52;-8.30;99.90
34646;DHT22;20857;47.808;12.482;2022-12-18T00:45:21;-8.40;99.90
34646;DHT22;20857;47.808;12.482;2022-12-18T00:47:46;-8.40;99.90
34646;DHT22;20857;47.808;12.482;2022-12-18T00:50:12;-8.40;99.90
34646;DHT22;20857;47.808;12.482;2022-12-18T00:52:37;-8.40;99.90
34646;DHT22;20857;47.808;12.482;2022-12-18T00:55:03;-8.40;99.90
34646;DHT22;20857;47.808;12.482;2022-12-18T00:57:30;-8.50;99.90
34646;DHT22;20857;47.808;12.482;2022-12-18T01:02:21;-8.50;99.90
34646;DHT22;20857;47.808;12.482;2022-12-18T01:04:47;-8.60;99.90
34646;DHT22;20857;47.808;12.482;2022-12-18T01:07:12;-8.70;99.90
34646;DHT22;20857;47.808;12.482;2022-12-18T01:09:38;-8.60;99.90
34646;DHT22;20857;47.808;12.482;2022-12-18T01:12:03;-8.50;99.90
34646;DHT22;20857;47.808;12.482;2022-12-18T01:14:29;-8.60;99.90
34646;DHT22;20857;47.808;12.482;2022-12-18T01:16:55;-8.90;99.90
34646;DHT22;20857;47.808;12.482;2022-12-18T01:19:21;-9.00;99.90
34646;DHT22;20857;47.808;12.482;2022-12-18T01:21:46;-8.90;99.90
34646;DHT22;20857;47.808;12.482;2022-12-18T01:24:12;-8.70;99.90
34646;DHT22;20857;47.808;12.482;2022-12-18T01:26:37;-8.70;99.90
34646;DHT22;20857;47.808;12.482;2022-12-18T01:29:03;-8.50;99.90
34646;DHT22;20857;47.808;12.482;2022-12-18T01:31:29;-8.40;99.90
34646;DHT22;20857;47.808;12.482;2022-12-18T01:33:55;-8.40;99.90
34646;DHT22;20857;47.808;12.482;2022-12-18T01:36:25;-8.50;99.90
34646;DHT22;20857;47.808;12.482;2022-12-18T01:38:51;-8.70;99.90
34646;DHT22;20857;47.808;12.482;2022-12-18T01:41:17;-8.90;99.90
34646;DHT22;20857;47.808;12.482;2022-12-18T01:43:54;-9.00;99.90
34646;DHT22;20857;47.808;12.482;2022-12-18T01:46:21;-9.00;99.90
34646;DHT22;20857;47.808;12.482;2022-12-18T01:48:47;-9.00;99.90
34646;DHT22;20857;47.808;12.482;2022-12-18T01:51:14;-8.90;99.90
34646;DHT22;20857;47.808;12.482;2022-12-18T01:53:40;-8.90;99.90
34646;DHT22;20857;47.808;12.482;2022-12-18T01:56:06;-8.80;99.90
34646;DHT22;20857;47.808;12.482;2022-12-18T02:00:57;-8.90;99.90
34646;DHT22;20857;47.808;12.482;2022-12-18T02:03:23;-9.30;99.90
34646;DHT22;20857;47.808;12.482;2022-12-18T02:06:05;-9.20;99.90
34646;DHT22;20857;47.808;12.482;2022-12-18T02:11:18;-8.90;99.90
34646;DHT22;20857;47.808;12.482;2022-12-18T02:14:01;-8.90;99.90
34646;DHT22;20857;47.808;12.482;2022-12-18T02:18:58;-8.80;99.90
34646;DHT22;20857;47.808;12.482;2022-12-18T02:22:06;-8.70;99.90
34646;DHT22;20857;47.808;12.482;2022-12-18T02:24:33;-8.70;99.90
34646;DHT22;20857;47.808;12.482;2022-12-18T02:27:04;-8.80;99.90
34646;DHT22;20857;47.808;12.482;2022-12-18T02:32:02;-9.20;99.90
34646;DHT22;20857;47.808;12.482;2022-12-18T02:34:29;-9.20;99.90
34646;DHT22;20857;47.808;12.482;2022-12-18T02:36:56;-9.20;99.90
34646;DHT22;20857;47.808;12.482;2022-12-18T02:39:23;-9.20;99.90
34646;DHT22;20857;47.808;12.482;2022-12-18T02:41:50;-9.00;99.90
34646;DHT22;20857;47.808;12.482;2022-12-18T02:44:15;-8.90;99.90
34646;DHT22;20857;47.808;12.482;2022-12-18T02:54:23;-9.30;99.90
34646;DHT22;20857;47.808;12.482;2022-12-18T02:56:54;-9.50;99.90
34646;DHT22;20857;47.808;12.482;2022-12-18T02:59:23;-9.60;99.90
34646;DHT22;20857;47.808;12.482;2022-12-18T03:01:51;-9.70;99.90
34646;DHT22;20857;47.808;12.482;2022-12-18T03:04:20;-9.80;99.90
34646;DHT22;20857;47.808;12.482;2022-12-18T03:06:49;-9.80;99.90
34646;DHT22;20857;47.808;12.482;2022-12-18T03:09:22;-9.70;99.90
34646;DHT22;20857;47.808;12.482;2022-12-18T03:11:52;-9.70;99.90
34646;DHT22;20857;47.808;12.482;2022-12-18T03:14:38;-9.50;99.90
34646;DHT22;20857;47.808;12.482;2022-12-18T03:17:07;-9.80;99.90
34646;DHT22;20857;47.808;12.482;2022-12-18T03:19:37;-9.80;99.90
34646;DHT22;20857;47.808;12.482;2022-12-18T03:22:04;-9.80;99.90
34646;DHT22;20857;47.808;12.482;2022-12-18T03:24:31;-9.70;99.90
34646;DHT22;20857;47.808;12.482;2022-12-18T03:27:00;-10.00;99.90
34646;DHT22;20857;47.808;12.482;2022-12-18T03:29:32;-9.80;99.90
34646;DHT22;20857;47.808;12.482;2022-12-18T03:32:01;-9.90;99.90
34646;DHT22;20857;47.808;12.482;2022-12-18T03:36:54;-9.90;99.90
34646;DHT22;20857;47.808;12.482;2022-12-18T03:39:19;-9.80;99.90
34646;DHT22;20857;47.808;12.482;2022-12-18T03:44:29;-9.70;99.90
34646;DHT22;20857;47.808;12.482;2022-12-18T03:47:12;-9.90;99.90
34646;DHT22;20857;47.808;12.482;2022-12-18T03:49:50;-10.10;99.90
34646;DHT22;20857;47.808;12.482;2022-12-18T03:54:47;-10.50;99.90
34646;DHT22;20857;47.808;12.482;2022-12-18T03:57:14;-10.40;99.90
34646;DHT22;20857;47.808;12.482;2022-12-18T03:59:41;-10.10;99.90
34646;DHT22;20857;47.808;12.482;2022-12-18T04:02:08;-10.40;99.90
34646;DHT22;20857;47.808;12.482;2022-12-18T04:04:34;-10.20;99.90
34646;DHT22;20857;47.808;12.482;2022-12-18T04:07:01;-10.30;99.90
34646;DHT22;20857;47.808;12.482;2022-12-18T04:09:27;-10.50;99.90
34646;DHT22;20857;47.808;12.482;2022-12-18T04:11:52;-10.30;99.90
34646;DHT22;20857;47.808;12.482;2022-12-18T04:14:18;-10.20;99.90
34646;DHT22;20857;47.808;12.482;2022-12-18T04:16:43;-10.00;99.90
34646;DHT22;20857;47.808;12.482;2022-12-18T04:19:09;-10.10;99.90
34646;DHT22;20857;47.808;12.482;2022-12-18T04:21:34;-10.20;99.90
34646;DHT22;20857;47.808;12.482;2022-12-18T04:24:00;-10.10;99.90
34646;DHT22;20857;47.808;12.482;2022-12-18T04:26:25;-9.90;99.90
34646;DHT22;20857;47.808;12.482;2022-12-18T04:28:51;-9.90;99.90
34646;DHT22;20857;47.808;12.482;2022-12-18T04:31:16;-9.60;99.90
34646;DHT22;20857;47.808;12.482;2022-12-18T04:33:42;-9.40;99.90
34646;DHT22;20857;47.808;12.482;2022-12-18T04:36:07;-9.60;99.90
34646;DHT22;20857;47.808;12.482;2022-12-18T04:38:32;-9.60;99.90
34646;DHT22;20857;47.808;12.482;2022-12-18T04:40:58;-9.90;99.90
34646;DHT22;20857;47.808;12.482;2022-12-18T04:43:23;-9.70;99.90
34646;DHT22;20857;47.808;12.482;2022-12-18T04:45:49;-9.70;99.90
34646;DHT22;20857;47.808;12.482;2022-12-18T04:48:14;-9.60;99.90
34646;DHT22;20857;47.808;12.482;2022-12-18T04:50:40;-9.70;99.90
34646;DHT22;20857;47.808;12.482;2022-12-18T04:53:05;-9.40;99.90
34646;DHT22;20857;47.808;12.482;2022-12-18T04:55:31;-9.40;99.90
34646;DHT22;20857;47.808;12.482;2022-12-18T04:57:56;-9.50;99.90
34646;DHT22;20857;47.808;12.482;2022-12-18T05:00:22;-9.60;99.90
34646;DHT22;20857;47.808;12.482;2022-12-18T05:02:47;-9.30;99.90
34646;DHT22;20857;47.808;12.482;2022-12-18T05:07:39;-9.40;99.90
34646;DHT22;20857;47.808;12.482;2022-12-18T05:10:07;-9.20;99.90
34646;DHT22;20857;47.808;12.482;2022-12-18T05:12:33;-9.40;99.90
34646;DHT22;20857;47.808;12.482;2022-12-18T05:14:59;-9.30;99.90
34646;DHT22;20857;47.808;12.482;2022-12-18T05:17:24;-9.50;99.90
34646;DHT22;20857;47.808;12.482;2022-12-18T05:19:49;-9.70;99.90
34646;DHT22;20857;47.808;12.482;2022-12-18T05:24:41;-10.10;99.90
34646;DHT22;20857;47.808;12.482;2022-12-18T05:27:06;-10.10;99.90
34646;DHT22;20857;47.808;12.482;2022-12-18T05:29:32;-9.90;99.90
34646;DHT22;20857;47.808;12.482;2022-12-18T05:31:57;-9.50;99.90
34646;DHT22;20857;47.808;12.482;2022-12-18T05:34:23;-9.30;99.90
34646;DHT22;20857;47.808;12.482;2022-12-18T05:36:48;-9.30;99.90
34646;DHT22;20857;47.808;12.482;2022-12-18T05:39:14;-9.20;99.90
34646;DHT22;20857;47.808;12.482;2022-12-18T05:41:39;-9.20;99.90
34646;DHT22;20857;47.808;12.482;2022-12-18T05:44:05;-9.40;99.90
34646;DHT22;20857;47.808;12.482;2022-12-18T05:46:30;-9.50;99.90
34646;DHT22;20857;47.808;12.482;2022-12-18T05:48:58;-9.60;99.90
34646;DHT22;20857;47.808;12.482;2022-12-18T05:51:24;-9.60;99.90
34646;DHT22;20857;47.808;12.482;2022-12-18T05:53:49;-9.90;99.90
34646;DHT22;20857;47.808;12.482;2022-12-18T05:56:18;-10.50;99.90
34646;DHT22;20857;47.808;12.482;2022-12-18T05:58:44;-10.80;99.90
34646;DHT22;20857;47.808;12.482;2022-12-18T06:01:12;-10.60;99.90
34646;DHT22;20857;47.808;12.482;2022-12-18T06:03:38;-10.40;99.90
34646;DHT22;20857;47.808;12.482;2022-12-18T06:06:04;-10.50;99.90
34646;DHT22;20857;47.808;12.482;2022-12-18T06:08:37;-10.70;99.90
34646;DHT22;20857;47.808;12.482;2022-12-18T06:13:28;-10.90;99.90
34646;DHT22;20857;47.808;12.482;2022-12-18T06:15:54;-10.50;99.90
34646;DHT22;20857;47.808;12.482;2022-12-18T06:18:19;-10.20;99.90
34646;DHT22;20857;47.808;12.482;2022-12-18T06:20:45;-10.00;99.90
34646;DHT22;20857;47.808;12.482;2022-12-18T06:23:10;-10.00;99.90
34646;DHT22;20857;47.808;12.482;2022-12-18T06:25:39;-9.80;99.90
34646;DHT22;20857;47.808;12.482;2022-12-18T06:28:04;-9.80;99.90
34646;DHT22;20857;47.808;12.482;2022-12-18T06:30:30;-9.70;99.90
34646;DHT22;20857;47.808;12.482;2022-12-18T06:32:55;-9.80;99.90
34646;DHT22;20857;47.808;12.482;2022-12-18T06:35:22;-10.30;99.90
34646;DHT22;20857;47.808;12.482;2022-12-18T06:37:47;-10.60;99.90
34646;DHT22;20857;47.808;12.482;2022-12-18T06:40:12;-10.90;99.90
34646;DHT22;20857;47.808;12.482;2022-12-18T06:42:38;-10.70;99.90
34646;DHT22;20857;47.808;12.482;2022-12-18T06:45:04;-10.50;99.90
34646;DHT22;20857;47.808;12.482;2022-12-18T06:47:29;-10.30;99.90
34646;DHT22;20857;47.808;12.482;2022-12-18T06:49:54;-10.10;99.90
34646;DHT22;20857;47.808;12.482;2022-12-18T06:52:20;-10.00;99.90
34646;DHT22;20857;47.808;12.482;2022-12-18T06:54:45;-10.00;99.90
34646;DHT22;20857;47.808;12.482;2022-12-18T06:57:11;-10.10;99.90
34646;DHT22;20857;47.808;12.482;2022-12-18T06:59:36;-10.30;99.90
34646;DHT22;20857;47.808;12.482;2022-12-18T07:02:02;-10.00;99.90
34646;DHT22;20857;47.808;12.482;2022-12-18T07:04:30;-9.90;99.90
34646;DHT22;20857;47.808;12.482;2022-12-18T07:06:56;-9.90;99.90
34646;DHT22;20857;47.808;12.482;2022-12-18T07:09:23;-9.80;99.90
34646;DHT22;20857;47.808;12.482;2022-12-18T07:11:48;-9.80;99.90
34646;DHT22;20857;47.808;12.482;2022-12-18T07:14:13;-9.70;99.90
34646;DHT22;20857;47.808;12.482;2022-12-18T07:16:39;-9.70;99.90
34646;DHT22;20857;47.808;12.482;2022-12-18T07:19:05;-9.80;99.90
34646;DHT22;20857;47.808;12.482;2022-12-18T07:21:31;-10.00;99.90
34646;DHT22;20857;47.808;12.482;2022-12-18T07:23:56;-10.30;99.90
34646;DHT22;20857;47.808;12.482;2022-12-18T07:26:22;-10.70;99.90
34646;DHT22;20857;47.808;12.482;2022-12-18T07:28:48;-10.90;99.90
34646;DHT22;20857;47.808;12.482;2022-12-18T07:33:40;-10.80;99.90
34646;DHT22;20857;47.808;12.482;2022-12-18T07:36:06;-10.50;99.90
34646;DHT22;20857;47.808;12.482;2022-12-18T07:38:33;-10.30;99.90
34646;DHT22;20857;47.808;12.482;2022-12-18T07:41:02;-10.10;99.90
34646;DHT22;20857;47.808;12.482;2022-12-18T07:43:28;-10.00;99.90
34646;DHT22;20857;47.808;12.482;2022-12-18T07:45:53;-9.90;99.90
34646;DHT22;20857;47.808;12.482;2022-12-18T07:48:19;-10.00;99.90
34646;DHT22;20857;47.808;12.482;2022-12-18T07:50:44;-10.30;99.90
34646;DHT22;20857;47.808;12.482;2022-12-18T07:53:09;-10.30;99.90
34646;DHT22;20857;47.808;12.482;2022-12-18T07:55:35;-10.10;99.90
34646;DHT22;20857;47.808;12.482;2022-12-18T07:58:01;-10.00;99.90
34646;DHT22;20857;47.808;12.482;2022-12-18T08:00:27;-10.10;99.90
34646;DHT22;20857;47.808;12.482;2022-12-18T08:02:53;-9.90;99.90
34646;DHT22;20857;47.808;12.482;2022-12-18T08:05:18;-10.10;99.90
34646;DHT22;20857;47.808;12.482;2022-12-18T08:07:44;-10.20;99.90
34646;DHT22;20857;47.808;12.482;2022-12-18T08:10:09;-10.20;99.90
34646;DHT22;20857;47.808;12.482;2022-12-18T08:12:35;-10.10;99.90
34646;DHT22;20857;47.808;12.482;2022-12-18T08:15:00;-9.80;99.90
34646;DHT22;20857;47.808;12.482;2022-12-18T08:17:26;-9.60;99.90
34646;DHT22;20857;47.808;12.482;2022-12-18T08:19:51;-9.40;99.90
34646;DHT22;20857;47.808;12.482;2022-12-18T08:22:17;-9.20;99.90
34646;DHT22;20857;47.808;12.482;2022-12-18T08:24:42;-9.20;99.90
34646;DHT22;20857;47.808;12.482;2022-12-18T08:27:08;-9.10;99.90
34646;DHT22;20857;47.808;12.482;2022-12-18T08:29:33;-8.90;99.90
34646;DHT22;20857;47.808;12.482;2022-12-18T08:31:59;-8.80;99.90
34646;DHT22;20857;47.808;12.482;2022-12-18T08:34:24;-8.70;99.90
34646;DHT22;20857;47.808;12.482;2022-12-18T08:36:50;-8.60;99.90
34646;DHT22;20857;47.808;12.482;2022-12-18T08:39:15;-8.60;99.90
34646;DHT22;20857;47.808;12.482;2022-12-18T08:41:40;-8.40;99.90
34646;DHT22;20857;47.808;12.482;2022-12-18T08:44:09;-8.20;99.90
34646;DHT22;20857;47.808;12.482;2022-12-18T08:46:55;-8.10;99.90
34646;DHT22;20857;47.808;12.482;2022-12-18T08:49:20;-8.10;99.90
34646;DHT22;20857;47.808;12.482;2022-12-18T08:51:46;-8.00;99.90
34646;DHT22;20857;47.808;12.482;2022-12-18T08:54:11;-7.90;99.90
34646;DHT22;20857;47.808;12.482;2022-12-18T08:56:38;-7.80;99.90
34646;DHT22;20857;47.808;12.482;2022-12-18T08:59:03;-7.70;99.90
34646;DHT22;20857;47.808;12.482;2022-12-18T09:01:29;-7.80;99.90
34646;DHT22;20857;47.808;12.482;2022-12-18T09:04:00;-7.70;99.90
34646;DHT22;20857;47.808;12.482;2022-12-18T09:06:25;-7.60;99.90
34646;DHT22;20857;47.808;12.482;2022-12-18T09:08:51;-7.70;99.90
34646;DHT22;20857;47.808;12.482;2022-12-18T09:11:19;-7.60;99.90
34646;DHT22;20857;47.808;12.482;2022-12-18T09:13:45;-7.50;99.90
34646;DHT22;20857;47.808;12.482;2022-12-18T09:16:11;-7.40;99.90
34646;DHT22;20857;47.808;12.482;2022-12-18T09:18:36;-7.60;99.90
34646;DHT22;20857;47.808;12.482;2022-12-18T09:21:09;-7.50;99.90
34646;DHT22;20857;47.808;12.482;2022-12-18T09:23:35;-7.50;99.90
34646;DHT22;20857;47.808;12.482;2022-12-18T09:26:01;-7.20;99.90
34646;DHT22;20857;47.808;12.482;2022-12-18T09:28:26;-7.00;99.90
34646;DHT22;20857;47.808;12.482;2022-12-18T09:33:18;-6.60;99.90
34646;DHT22;20857;47.808;12.482;2022-12-18T09:35:44;-6.40;99.90
34646;DHT22;20857;47.808;12.482;2022-12-18T09:38:11;-6.10;99.90
34646;DHT22;20857;47.808;12.482;2022-12-18T09:40:44;-6.20;99.90
34646;DHT22;20857;47.808;12.482;2022-12-18T09:43:18;-5.80;99.90
34646;DHT22;20857;47.808;12.482;2022-12-18T09:45:46;-5.60;99.90
34646;DHT22;20857;47.808;12.482;2022-12-18T09:48:18;-5.30;99.90
34646;DHT22;20857;47.808;12.482;2022-12-18T09:50:45;-5.10;99.90
34646;DHT22;20857;47.808;12.482;2022-12-18T09:53:30;-5.20;99.90
34646;DHT22;20857;47.808;12.482;2022-12-18T09:55:56;-4.90;99.90
34646;DHT22;20857;47.808;12.482;2022-12-18T10:00:54;-4.60;99.90
34646;DHT22;20857;47.808;12.482;2022-12-18T10:03:20;-4.60;99.90
34646;DHT22;20857;47.808;12.482;2022-12-18T10:08:13;-5.20;99.90
34646;DHT22;20857;47.808;12.482;2022-12-18T10:10:51;-4.80;99.90
34646;DHT22;20857;47.808;12.482;2022-12-18T10:13:22;-4.80;99.90
34646;DHT22;20857;47.808;12.482;2022-12-18T10:18:31;-4.60;99.90
34646;DHT22;20857;47.808;12.482;2022-12-18T10:21:00;-4.40;99.90
34646;DHT22;20857;47.808;12.482;2022-12-18T10:26:07;-4.60;99.90
34646;DHT22;20857;47.808;12.482;2022-12-18T10:28:37;-4.20;99.90
34646;DHT22;20857;47.808;12.482;2022-12-18T10:31:07;-4.00;99.90
34646;DHT22;20857;47.808;12.482;2022-12-18T10:33:37;-3.90;99.90
34646;DHT22;20857;47.808;12.482;2022-12-18T10:36:02;-3.80;99.90
34646;DHT22;20857;47.808;12.482;2022-12-18T10:38:29;-3.50;99.90
34646;DHT22;20857;47.808;12.482;2022-12-18T10:40:56;-3.40;99.90
34646;DHT22;20857;47.808;12.482;2022-12-18T10:43:35;-3.40;99.90
34646;DHT22;20857;47.808;12.482;2022-12-18T10:46:02;-3.40;99.90
34646;DHT22;20857;47.808;12.482;2022-12-18T10:48:31;-3.30;99.90
34646;DHT22;20857;47.808;12.482;2022-12-18T10:50:56;-3.30;99.90
34646;DHT22;20857;47.808;12.482;2022-12-18T10:53:27;-3.30;99.90
34646;DHT22;20857;47.808;12.482;2022-12-18T10:55:54;-3.20;99.90
34646;DHT22;20857;47.808;12.482;2022-12-18T10:58:27;-3.30;99.90
34646;DHT22;20857;47.808;12.482;2022-12-18T11:01:12;-3.30;99.90
34646;DHT22;20857;47.808;12.482;2022-12-18T11:06:08;-3.00;99.90
34646;DHT22;20857;47.808;12.482;2022-12-18T11:08:34;-3.10;99.90
34646;DHT22;20857;47.808;12.482;2022-12-18T11:10:59;-3.30;99.90
34646;DHT22;20857;47.808;12.482;2022-12-18T11:13:26;-3.50;99.90
34646;DHT22;20857;47.808;12.482;2022-12-18T11:15:51;-3.30;99.90
34646;DHT22;20857;47.808;12.482;2022-12-18T11:18:22;-3.40;99.90
34646;DHT22;20857;47.808;12.482;2022-12-18T11:20:59;-3.40;99.90
34646;DHT22;20857;47.808;12.482;2022-12-18T11:23:26;-3.10;99.90
34646;DHT22;20857;47.808;12.482;2022-12-18T11:25:53;-3.10;99.90
34646;DHT22;20857;47.808;12.482;2022-12-18T11:28:34;-2.90;99.90
34646;DHT22;20857;47.808;12.482;2022-12-18T11:33:50;-2.60;99.90
34646;DHT22;20857;47.808;12.482;2022-12-18T11:36:17;-2.60;99.90
34646;DHT22;20857;47.808;12.482;2022-12-18T11:38:44;-2.60;99.90
34646;DHT22;20857;47.808;12.482;2022-12-18T11:41:30;-2.40;99.90
34646;DHT22;20857;47.808;12.482;2022-12-18T11:44:19;-2.40;99.90
34646;DHT22;20857;47.808;12.482;2022-12-18T11:46:49;-2.20;99.90
34646;DHT22;20857;47.808;12.482;2022-12-18T11:49:20;-2.30;99.90
34646;DHT22;20857;47.808;12.482;2022-12-18T11:51:49;-2.30;99.90
34646;DHT22;20857;47.808;12.482;2022-12-18T11:54:15;-2.40;99.90
34646;DHT22;20857;47.808;12.482;2022-12-18T11:56:44;-2.90;99.90
34646;DHT22;20857;47.808;12.482;2022-12-18T11:59:24;-3.10;99.90
34646;DHT22;20857;47.808;12.482;2022-12-18T12:01:54;-2.80;99.90
34646;DHT22;20857;47.808;12.482;2022-12-18T12:22:24;-3.10;99.90
34646;DHT22;20857;47.808;12.482;2022-12-18T12:27:21;-3.00;99.90
34646;DHT22;20857;47.808;12.482;2022-12-18T12:29:58;-3.00;99.90
34646;DHT22;20857;47.808;12.482;2022-12-18T12:35:37;-3.40;99.90
34646;DHT22;20857;47.808;12.482;2022-12-18T12:38:16;-3.30;99.90
34646;DHT22;20857;47.808;12.482;2022-12-18T12:40:47;-3.00;99.90
34646;DHT22;20857;47.808;12.482;2022-12-18T12:46:06;-2.90;99.90
34646;DHT22;20857;47.808;12.482;2022-12-18T12:50:58;-3.10;99.90
34646;DHT22;20857;47.808;12.482;2022-12-18T12:53:30;-2.80;99.90
34646;DHT22;20857;47.808;12.482;2022-12-18T12:55:56;-2.80;99.90
34646;DHT22;20857;47.808;12.482;2022-12-18T12:58:25;-2.60;99.90
34646;DHT22;20857;47.808;12.482;2022-12-18T13:03:55;-2.40;99.90
34646;DHT22;20857;47.808;12.482;2022-12-18T13:06:28;-2.40;99.90
34646;DHT22;20857;47.808;12.482;2022-12-18T13:08:58;-2.60;99.90
34646;DHT22;20857;47.808;12.482;2022-12-18T13:11:40;-2.70;99.90
34646;DHT22;20857;47.808;12.482;2022-12-18T13:16:51;-2.80;99.90
34646;DHT22;20857;47.808;12.482;2022-12-18T13:19:23;-2.80;99.90
34646;DHT22;20857;47.808;12.482;2022-12-18T13:21:54;-2.80;99.90
34646;DHT22;20857;47.808;12.482;2022-12-18T13:24:27;-2.70;99.90
34646;DHT22;20857;47.808;12.482;2022-12-18T13:26:53;-2.60;99.90
34646;DHT22;20857;47.808;12.482;2022-12-18T13:32:21;-2.50;99.90
34646;DHT22;20857;47.808;12.482;2022-12-18T13:34:46;-2.50;99.90
34646;DHT22;20857;47.808;12.482;2022-12-18T13:39:56;-2.40;99.90
34646;DHT22;20857;47.808;12.482;2022-12-18T13:42:40;-2.40;99.90
34646;DHT22;20857;47.808;12.482;2022-12-18T13:48:19;-2.50;99.90
34646;DHT22;20857;47.808;12.482;2022-12-18T13:51:04;-2.70;99.90
34646;DHT22;20857;47.808;12.482;2022-12-18T13:53:33;-2.60;99.90
34646;DHT22;20857;47.808;12.482;2022-12-18T13:56:02;-2.50;99.90
34646;DHT22;20857;47.808;12.482;2022-12-18T13:58:28;-2.50;99.90
34646;DHT22;20857;47.808;12.482;2022-12-18T14:00:53;-2.50;99.90
34646;DHT22;20857;47.808;12.482;2022-12-18T14:03:23;-2.70;99.90
34646;DHT22;20857;47.808;12.482;2022-12-18T14:06:02;-2.40;99.90
34646;DHT22;20857;47.808;12.482;2022-12-18T14:08:32;-2.40;99.90
34646;DHT22;20857;47.808;12.482;2022-12-18T14:11:01;-2.30;99.90
34646;DHT22;20857;47.808;12.482;2022-12-18T14:15:56;-2.10;99.90
34646;DHT22;20857;47.808;12.482;2022-12-18T14:20:55;-2.20;99.90
34646;DHT22;20857;47.808;12.482;2022-12-18T14:23:35;-2.30;99.90
34646;DHT22;20857;47.808;12.482;2022-12-18T14:26:46;-2.40;99.90
34646;DHT22;20857;47.808;12.482;2022-12-18T14:28:47;-2.60;99.90
34646;DHT22;20857;47.808;12.482;2022-12-18T14:31:19;-2.70;99.90
34646;DHT22;20857;47.808;12.482;2022-12-18T14:33:45;-2.80;99.90
34646;DHT22;20857;47.808;12.482;2022-12-18T14:36:15;-3.00;99.90
34646;DHT22;20857;47.808;12.482;2022-12-18T14:38:41;-3.10;99.90
34646;DHT22;20857;47.808;12.482;2022-12-18T14:41:11;-3.20;99.90
34646;DHT22;20857;47.808;12.482;2022-12-18T14:43:37;-3.30;99.90
34646;DHT22;20857;47.808;12.482;2022-12-18T14:46:03;-3.40;99.90
34646;DHT22;20857;47.808;12.482;2022-12-18T14:51:02;-3.50;99.90
34646;DHT22;20857;47.808;12.482;2022-12-18T14:53:31;-3.60;99.90
34646;DHT22;20857;47.808;12.482;2022-12-18T14:55:58;-3.70;99.90
34646;DHT22;20857;47.808;12.482;2022-12-18T14:58:23;-4.00;99.90
34646;DHT22;20857;47.808;12.482;2022-12-18T15:00:49;-4.00;99.90
34646;DHT22;20857;47.808;12.482;2022-12-18T15:03:18;-4.10;99.90
34646;DHT22;20857;47.808;12.482;2022-12-18T15:05:45;-4.20;99.90
34646;DHT22;20857;47.808;12.482;2022-12-18T15:08:26;-4.30;99.90
34646;DHT22;20857;47.808;12.482;2022-12-18T15:10:52;-4.40;99.90
34646;DHT22;20857;47.808;12.482;2022-12-18T15:13:22;-4.60;99.90
34646;DHT22;20857;47.808;12.482;2022-12-18T15:15:48;-4.60;99.90
34646;DHT22;20857;47.808;12.482;2022-12-18T15:18:32;-4.70;99.90
34646;DHT22;20857;47.808;12.482;2022-12-18T15:20:59;-4.90;99.90
34646;DHT22;20857;47.808;12.482;2022-12-18T15:25:58;-5.20;99.90
34646;DHT22;20857;47.808;12.482;2022-12-18T15:28:26;-5.20;99.90
34646;DHT22;20857;47.808;12.482;2022-12-18T15:31:18;-5.40;99.90
34646;DHT22;20857;47.808;12.482;2022-12-18T15:33:38;-5.40;99.90
34646;DHT22;20857;47.808;12.482;2022-12-18T15:36:05;-5.50;99.90
34646;DHT22;20857;47.808;12.482;2022-12-18T15:38:33;-5.40;99.90
34646;DHT22;20857;47.808;12.482;2022-12-18T15:40:59;-5.40;99.90
34646;DHT22;20857;47.808;12.482;2022-12-18T15:43:25;-5.60;99.90
34646;DHT22;20857;47.808;12.482;2022-12-18T15:46:00;-5.70;99.90
34646;DHT22;20857;47.808;12.482;2022-12-18T15:48:26;-5.70;99.90
34646;DHT22;20857;47.808;12.482;2022-12-18T15:50:52;-5.70;99.90
34646;DHT22;20857;47.808;12.482;2022-12-18T15:53:18;-5.70;99.90
34646;DHT22;20857;47.808;12.482;2022-12-18T15:55:44;-5.80;99.90
34646;DHT22;20857;47.808;12.482;2022-12-18T15:58:28;-5.80;99.90
34646;DHT22;20857;47.808;12.482;2022-12-18T16:00:54;-5.70;99.90
34646;DHT22;20857;47.808;12.482;2022-12-18T16:03:20;-6.00;99.90
34646;DHT22;20857;47.808;12.482;2022-12-18T16:05:46;-6.00;99.90
34646;DHT22;20857;47.808;12.482;2022-12-18T16:08:11;-6.20;99.90
34646;DHT22;20857;47.808;12.482;2022-12-18T16:10:37;-6.20;99.90
34646;DHT22;20857;47.808;12.482;2022-12-18T16:13:02;-6.20;99.90
34646;DHT22;20857;47.808;12.482;2022-12-18T16:15:28;-6.20;99.90
34646;DHT22;20857;47.808;12.482;2022-12-18T16:17:53;-6.20;99.90
34646;DHT22;20857;47.808;12.482;2022-12-18T16:20:19;-6.20;99.90
34646;DHT22;20857;47.808;12.482;2022-12-18T16:22:46;-6.20;99.90
34646;DHT22;20857;47.808;12.482;2022-12-18T16:25:25;-6.10;99.90
34646;DHT22;20857;47.808;12.482;2022-12-18T16:27:51;-6.20;99.90
34646;DHT22;20857;47.808;12.482;2022-12-18T16:30:18;-6.20;99.90
34646;DHT22;20857;47.808;12.482;2022-12-18T16:32:44;-6.50;99.90
34646;DHT22;20857;47.808;12.482;2022-12-18T16:35:10;-6.50;99.90
34646;DHT22;20857;47.808;12.482;2022-12-18T16:37:36;-6.50;99.90
34646;DHT22;20857;47.808;12.482;2022-12-18T16:40:02;-6.50;99.90
34646;DHT22;20857;47.808;12.482;2022-12-18T16:42:27;-6.50;99.90
34646;DHT22;20857;47.808;12.482;2022-12-18T16:44:53;-6.40;99.90
34646;DHT22;20857;47.808;12.482;2022-12-18T16:47:18;-6.50;99.90
34646;DHT22;20857;47.808;12.482;2022-12-18T16:49:44;-6.50;99.90
34646;DHT22;20857;47.808;12.482;2022-12-18T16:52:10;-6.70;99.90
34646;DHT22;20857;47.808;12.482;2022-12-18T16:54:36;-6.70;99.90
34646;DHT22;20857;47.808;12.482;2022-12-18T16:57:01;-6.60;99.90
34646;DHT22;20857;47.808;12.482;2022-12-18T16:59:27;-6.60;99.90
34646;DHT22;20857;47.808;12.482;2022-12-18T17:01:53;-6.50;99.90
34646;DHT22;20857;47.808;12.482;2022-12-18T17:06:45;-6.40;99.90
34646;DHT22;20857;47.808;12.482;2022-12-18T17:09:16;-6.40;99.90